Time;durP1;ratioP1;P1;durP2;ratioP2;P2;SDS_P1;SDS_P2;PMS_P1;PMS_P2;Temp;Humidity;BMP_temperature;BMP_pressure;BME280_temperature;BME280_humidity;BME280_pressure;Samples;Min_cycle;Max_cycle;Signal;HPM_P1;HPM_P2
2022/04/26 03:37:19;;;;;;;4.80;4.00;;;;;;;21.22;52.33;98349.77;1633916;87;25819;-85
2022/04/26 03:39:46;;;;;;;4.50;4.10;;;;;;;21.23;52.34;98353.34;1633940;87;25775;-85
2022/04/26 03:42:13;;;;;;;4.85;4.30;;;;;;;21.21;52.33;98356.52;1633934;87;26622;-85
2022/04/26 03:44:40;;;;;;;5.12;4.08;;;;;;;21.20;52.38;98357.72;1634295;87;25820;-85
2022/04/26 03:47:07;;;;;;;4.45;4.05;;;;;;;21.19;52.39;98365.27;1634046;87;28277;-85
2022/04/26 03:49:35;;;;;;;4.90;3.70;;;;;;;21.19;52.42;98364.49;1634090;87;25881;-85
2022/04/26 03:52:01;;;;;;;4.17;3.62;;;;;;;21.20;52.42;98364.69;1634164;87;25555;-85
2022/04/26 03:54:28;;;;;;;4.42;3.80;;;;;;;21.21;52.38;98370.45;1634242;87;25862;-85
2022/04/26 03:56:53;;;;;;;5.45;4.28;;;;;;;21.20;52.39;98375.83;1634237;87;25772;-86
2022/04/26 03:59:20;;;;;;;4.62;4.17;;;;;;;21.18;52.45;98377.61;1634136;87;27491;-85
2022/04/26 04:01:47;;;;;;;4.62;4.15;;;;;;;21.19;52.44;98377.03;1634267;87;25734;-85
2022/04/26 04:04:14;;;;;;;4.42;4.00;;;;;;;21.19;52.44;98376.41;1634399;87;25570;-83
2022/04/26 04:06:41;;;;;;;4.17;3.70;;;;;;;21.19;52.48;98375.64;1660718;83;26488;-83
2022/04/26 04:09:07;;;;;;;4.33;3.87;;;;;;;21.19;52.46;98384.00;1663372;84;25483;-84
2022/04/26 04:11:33;;;;;;;4.65;4.10;;;;;;;21.19;52.47;98385.39;1663213;85;27384;-83
2022/04/26 04:13:59;;;;;;;4.60;4.10;;;;;;;21.18;52.49;98389.34;1663198;85;25403;-83
2022/04/26 04:16:25;;;;;;;5.15;4.12;;;;;;;21.18;52.50;98392.13;1663289;85;25501;-83
2022/04/26 04:21:36;;;;;;;4.92;3.77;;;;;;;21.18;52.51;98397.12;1663029;86;25847;-84
2022/04/26 04:24:11;;;;;;;5.55;4.40;;;;;;;21.17;52.50;98398.31;1663356;85;27621;-84
2022/04/26 04:26:38;;;;;;;4.78;4.20;;;;;;;21.17;52.53;98399.71;1663184;85;25444;-84
2022/04/26 04:29:05;;;;;;;4.70;4.05;;;;;;;21.17;52.53;98405.87;1663264;85;25666;-83
2022/04/26 04:31:33;;;;;;;5.45;4.30;;;;;;;21.16;52.56;98414.81;1662928;86;26698;-83
2022/04/26 04:34:01;;;;;;;4.85;4.10;;;;;;;21.16;52.56;98412.02;1663003;84;25606;-83
2022/04/26 04:36:28;;;;;;;4.95;4.30;;;;;;;21.16;52.57;98412.64;1663315;85;27397;-83
2022/04/26 04:38:56;;;;;;;4.60;3.90;;;;;;;21.14;52.58;98416.41;1663260;85;25498;-83
2022/04/26 04:41:23;;;;;;;4.92;4.17;;;;;;;21.14;52.59;98417.80;1662899;86;25647;-83
2022/04/26 04:43:50;;;;;;;4.50;3.92;;;;;;;21.14;52.60;98426.96;1663372;85;25693;-83
2022/04/26 04:46:16;;;;;;;4.55;4.12;;;;;;;21.14;52.60;98417.21;1663249;85;25674;-83
2022/04/26 04:48:42;;;;;;;4.12;3.67;;;;;;;21.14;52.61;98433.12;1663225;85;27418;-84
2022/04/26 04:51:09;;;;;;;4.90;4.20;;;;;;;21.13;52.62;98429.53;1663290;86;25678;-83
2022/04/26 04:53:35;;;;;;;5.10;4.10;;;;;;;21.14;52.61;98428.36;1663390;86;25679;-84
2022/04/26 04:56:02;;;;;;;4.80;4.10;;;;;;;21.14;52.60;98429.75;1663241;86;25681;-85
2022/04/26 04:58:29;;;;;;;4.50;3.92;;;;;;;21.14;52.61;98433.93;1663068;86;25639;-84
2022/04/26 05:00:55;;;;;;;4.40;4.00;;;;;;;21.15;52.60;98433.31;1663187;86;27564;-83
2022/04/26 05:03:22;;;;;;;4.87;4.00;;;;;;;21.15;52.61;98436.91;1663237;85;25502;-84
2022/04/26 05:05:48;;;;;;;4.72;3.87;;;;;;;21.14;52.61;98439.50;1663143;83;25665;-84
2022/04/26 05:08:14;;;;;;;5.17;4.45;;;;;;;21.13;52.62;98437.88;1663177;86;25677;-84
2022/04/26 05:10:41;;;;;;;5.05;4.22;;;;;;;21.14;52.67;98445.66;1663254;86;25699;-85
2022/04/26 05:13:08;;;;;;;5.15;4.15;;;;;;;21.11;52.70;98445.86;1663215;86;27391;-85
2022/04/26 05:15:36;;;;;;;6.00;4.72;;;;;;;21.11;52.70;98450.03;1662865;85;25500;-86
2022/04/26 05:18:02;;;;;;;5.92;4.78;;;;;;;21.11;52.69;98446.44;1663038;85;25635;-86
2022/04/26 05:20:28;;;;;;;5.25;4.75;;;;;;;21.09;52.66;98444.63;1663245;85;25694;-85
2022/04/26 05:25:39;;;;;;;5.10;4.47;;;;;;;21.06;52.78;98449.81;1662924;86;25753;-86
2022/04/26 05:28:06;;;;;;;5.87;4.87;;;;;;;21.08;52.75;98452.79;1663203;85;25976;-83
2022/04/26 05:30:32;;;;;;;5.12;4.45;;;;;;;21.10;52.70;98457.39;1663186;85;25449;-83
2022/04/26 05:32:59;;;;;;;5.40;4.60;;;;;;;21.09;52.66;98464.13;1663099;86;25706;-82
2022/04/26 05:35:25;;;;;;;6.53;4.80;;;;;;;21.09;52.68;98468.30;1663310;86;25668;-83
2022/04/26 05:37:52;;;;;;;6.72;5.00;;;;;;;21.05;52.80;98467.72;1663411;85;28042;-83
2022/04/26 05:40:18;;;;;;;6.17;4.70;;;;;;;21.06;52.69;98469.89;1663083;85;25766;-83
2022/04/26 05:42:45;;;;;;;5.85;4.92;;;;;;;21.05;52.79;98474.69;1663197;85;25619;-85
2022/04/26 05:45:11;;;;;;;6.22;5.10;;;;;;;21.06;52.79;98472.09;1663237;86;25787;-84
2022/04/26 05:47:43;;;;;;;8.65;6.37;;;;;;;21.03;52.89;98473.45;1663220;85;25665;-84
2022/04/26 05:50:11;;;;;;;14.35;8.85;;;;;;;21.01;52.85;98468.89;1663149;86;27389;-85
2022/04/26 05:52:37;;;;;;;10.90;8.23;;;;;;;20.97;52.76;98477.21;1662990;84;25835;-83
2022/04/26 05:55:07;;;;;;;11.00;8.05;;;;;;;20.93;52.77;98476.41;1663260;86;25699;-84
2022/04/26 05:57:42;;;;;;;9.98;7.17;;;;;;;20.92;52.58;98476.98;1663003;86;25667;-85
2022/04/26 06:00:12;;;;;;;12.88;8.85;;;;;;;20.92;52.87;98478.96;1662921;86;25675;-86
2022/04/26 06:02:41;;;;;;;17.07;8.85;;;;;;;20.93;52.88;98479.19;1663291;86;27508;-85
2022/04/26 06:05:08;;;;;;;16.93;8.08;;;;;;;20.91;52.78;98475.98;1662567;85;25880;-85
2022/04/26 06:07:35;;;;;;;12.10;8.18;;;;;;;20.89;52.94;98478.31;1663000;85;25757;-85
2022/04/26 06:10:02;;;;;;;11.20;7.58;;;;;;;20.91;52.95;98467.63;1663132;86;25819;-85
2022/04/26 06:12:28;;;;;;;11.35;7.75;;;;;;;20.95;52.91;98467.66;1663298;86;25463;-85
2022/04/26 06:14:56;;;;;;;11.08;7.55;;;;;;;20.98;52.96;98474.63;1663162;85;27308;-86
2022/04/26 06:17:24;;;;;;;13.15;8.48;;;;;;;20.99;52.93;98476.24;1663192;85;25714;-85
2022/04/26 06:19:50;;;;;;;12.80;8.75;;;;;;;20.99;52.80;98477.64;1663206;86;25738;-85
2022/04/26 06:22:17;;;;;;;13.58;8.73;;;;;;;20.99;52.79;98468.47;1663221;85;25444;-85
2022/04/26 06:24:44;;;;;;;12.23;8.68;;;;;;;20.98;52.72;98474.63;1663190;85;25603;-85
2022/04/26 06:27:10;;;;;;;13.60;7.92;;;;;;;20.98;52.78;98473.23;1663256;85;27423;-85
2022/04/26 06:29:37;;;;;;;14.05;8.58;;;;;;;21.00;53.03;98469.47;1663067;86;25674;-85
2022/04/26 06:32:04;;;;;;;13.60;8.23;;;;;;;21.01;52.84;98466.88;1663207;85;25784;-85
2022/04/26 06:34:31;;;;;;;14.10;8.25;;;;;;;21.03;53.07;98472.06;1663205;85;25716;-85
2022/04/26 06:36:57;;;;;;;12.05;8.25;;;;;;;21.03;53.16;98470.67;1663264;86;25458;-85
2022/04/26 06:39:23;;;;;;;16.55;8.40;;;;;;;;;;1658533;84;27374;-85
2022/04/26 06:41:50;;;;;;;13.08;7.85;;;;;;;21.03;53.15;98474.27;1661886;86;25737;-85
2022/04/26 06:44:17;;;;;;;14.45;8.63;;;;;;;21.03;53.15;98477.05;1663180;86;25574;-85
2022/04/26 06:46:43;;;;;;;13.72;8.43;;;;;;;21.03;53.21;98476.24;1662906;85;25778;-85
2022/04/26 06:49:10;;;;;;;12.63;8.28;;;;;;;21.03;53.03;98472.88;1663170;86;25602;-85
2022/04/26 06:51:40;;;;;;;11.73;7.95;;;;;;;21.05;53.07;98478.05;1663086;86;27424;-85
2022/04/26 06:54:05;;;;;;;13.70;8.73;;;;;;;21.05;53.02;98478.05;1662656;85;25798;-84
2022/04/26 06:56:31;;;;;;;13.25;7.90;;;;;;;21.05;52.94;98480.25;1663135;85;25711;-85
2022/04/26 06:58:57;;;;;;;14.28;8.40;;;;;;;21.07;52.98;98484.02;1663169;86;25696;-84
2022/04/26 07:01:24;;;;;;;12.43;7.83;;;;;;;21.09;52.90;98489.20;1663132;86;25611;-85
2022/04/26 07:03:50;;;;;;;13.78;7.92;;;;;;;21.11;52.95;98491.83;1663158;86;28246;-84
2022/04/26 07:06:16;;;;;;;10.70;7.45;;;;;;;21.12;52.86;98493.41;1668042;83;25896;-83
2022/04/26 07:08:43;;;;;;;10.45;7.72;;;;;;;21.13;52.78;98492.83;1691408;84;25713;-83
2022/04/26 07:11:09;;;;;;;9.58;7.00;;;;;;;21.12;52.86;98489.81;1691331;84;25726;-85
2022/04/26 07:13:35;;;;;;;13.05;8.13;;;;;;;21.14;52.83;98488.84;1691314;84;25607;-84
2022/04/26 07:16:02;;;;;;;11.95;7.60;;;;;;;21.14;52.83;98491.05;1691373;83;27446;-84
2022/04/26 07:18:28;;;;;;;12.20;7.62;;;;;;;21.15;52.79;98491.23;1690974;84;25845;-85
2022/04/26 07:20:55;;;;;;;12.40;7.53;;;;;;;21.17;52.76;98497.81;1690783;84;25643;-83
2022/04/26 07:23:21;;;;;;;11.85;7.62;;;;;;;21.16;52.62;98494.84;1691496;84;26239;-83
2022/04/26 07:25:48;;;;;;;11.38;6.85;;;;;;;21.17;52.51;98496.42;1691547;84;25422;-83
2022/04/26 07:28:14;;;;;;;12.88;7.12;;;;;;;21.18;52.47;98494.64;1691295;84;27406;-84
2022/04/26 07:30:41;;;;;;;11.12;7.25;;;;;;;21.22;52.47;98496.65;1691239;84;25488;-84
2022/04/26 07:35:54;;;;;;;11.35;7.17;;;;;;;21.22;52.23;98500.24;1691141;84;25484;-86
2022/04/26 07:38:20;;;;;;;11.73;7.45;;;;;;;21.23;51.93;98502.41;1689829;84;25609;-85
2022/04/26 07:40:47;;;;;;;11.78;7.40;;;;;;;21.24;51.95;98502.64;1689477;83;27401;-84
2022/04/26 07:43:14;;;;;;;11.50;6.97;;;;;;;21.26;51.86;98507.20;1691424;83;25674;-85
2022/04/26 07:45:43;;;;;;;10.18;6.92;;;;;;;21.26;52.23;98508.02;1691381;83;25686;-84
2022/04/26 07:48:09;;;;;;;12.43;6.75;;;;;;;21.27;52.25;98516.58;1691579;84;25635;-84
2022/04/26 07:50:37;;;;;;;11.15;7.40;;;;;;;21.26;52.15;98517.77;1691513;84;25651;-84
2022/04/26 07:53:04;;;;;;;9.48;6.95;;;;;;;21.26;52.13;98522.53;1691470;84;27497;-86
2022/04/26 07:55:32;;;;;;;9.55;6.50;;;;;;;21.24;51.99;98522.14;1691319;84;25674;-85
2022/04/26 07:57:58;;;;;;;9.60;7.03;;;;;;;21.25;51.98;98524.55;1690502;84;25678;-87
2022/04/26 08:00:26;;;;;;;9.55;7.05;;;;;;;21.28;51.90;98529.92;1691547;84;26394;-86
2022/04/26 08:02:52;;;;;;;9.88;6.87;;;;;;;21.26;51.97;98530.90;1691446;84;25647;-86
2022/04/26 08:05:19;;;;;;;10.93;7.00;;;;;;;21.26;51.91;98535.08;1691595;84;27995;-86
2022/04/26 08:07:45;;;;;;;11.33;7.25;;;;;;;21.26;51.92;98533.69;1672721;83;26001;-87
2022/04/26 08:10:12;;;;;;;10.10;6.50;;;;;;;21.27;51.90;98537.47;1663351;85;25761;-87
2022/04/26 08:12:40;;;;;;;11.18;6.45;;;;;;;21.28;51.81;98539.67;1663325;85;25771;-86
2022/04/26 08:15:28;;;;;;;10.65;6.60;;;;;;;21.29;51.77;98544.86;1663357;86;25598;-87
2022/04/26 08:18:00;;;;;;;11.48;6.55;;;;;;;21.30;51.67;98550.63;1661297;85;26113;-83
2022/04/26 08:20:26;;;;;;;9.88;6.30;;;;;;;21.29;51.66;98551.83;1663268;86;25482;-84
2022/04/26 08:22:53;;;;;;;8.98;6.45;;;;;;;21.31;51.64;98557.02;1663322;84;25698;-84
2022/04/26 08:28:04;;;;;;;8.73;6.53;;;;;;;21.30;51.66;98558.98;1662978;86;25658;-84
2022/04/26 08:30:31;;;;;;;7.62;5.90;;;;;;;21.30;51.58;98556.81;1663303;86;27370;-86
2022/04/26 08:32:57;;;;;;;9.93;6.60;;;;;;;21.31;51.57;98561.20;1663079;85;25862;-84
2022/04/26 08:35:27;;;;;;;8.40;5.85;;;;;;;21.30;51.58;98560.38;1660273;84;25652;-84
2022/04/26 08:37:53;;;;;;;8.60;6.20;;;;;;;21.29;51.59;98561.58;1663427;85;25742;-86
2022/04/26 08:40:20;;;;;;;8.20;6.00;;;;;;;21.30;51.52;98567.97;1663269;85;25606;-86
2022/04/26 08:42:51;;;;;;;8.78;5.80;;;;;;;21.30;51.50;98568.75;1663172;86;27378;-87
2022/04/26 08:45:21;;;;;;;8.60;5.72;;;;;;;21.32;51.45;98564.17;1663037;85;25659;-84
2022/04/26 08:53:22;;;;;;;8.58;5.65;;;;;;;21.32;51.41;98568.36;1662980;86;25582;-84
2022/04/26 08:55:51;;;;;;;8.35;6.17;;;;;;;21.31;51.50;98574.55;1663186;85;27454;-85
2022/04/26 08:58:19;;;;;;;8.57;5.97;;;;;;;21.31;51.38;98570.36;1663351;85;25891;-86
2022/04/26 09:01:14;;;;;;;9.13;5.70;;;;;;;21.32;51.41;98573.93;1663194;86;25691;-85
2022/04/26 09:03:59;;;;;;;7.20;5.20;;;;;;;21.31;51.45;98576.52;1663359;85;25703;-85
2022/04/26 09:06:36;;;;;;;7.65;5.90;;;;;;;21.31;51.40;98575.94;1662335;85;25627;-85
2022/04/26 09:09:16;;;;;;;7.58;5.42;;;;;;;21.30;51.37;98574.31;1662903;86;27360;-84
2022/04/26 09:11:43;;;;;;;7.58;5.80;;;;;;;21.30;51.34;98577.11;1663220;86;25418;-85
2022/04/26 09:14:35;;;;;;;7.42;5.42;;;;;;;21.30;51.38;98580.50;1663248;84;25729;-84
2022/04/26 09:17:11;;;;;;;8.13;6.10;;;;;;;21.30;51.37;98574.94;1632901;87;26013;-85
2022/04/26 09:19:52;;;;;;;7.12;5.40;;;;;;;21.28;51.32;98580.89;1633014;87;25556;-85
2022/04/26 09:22:25;;;;;;;7.65;5.55;;;;;;;21.28;51.37;98581.48;1632618;87;27518;-85
2022/04/26 09:25:09;;;;;;;8.23;5.53;;;;;;;21.26;51.36;98583.84;1632634;87;25724;-84
2022/04/26 09:27:38;;;;;;;8.58;5.30;;;;;;;21.25;51.34;98585.85;1633007;87;25752;-85
2022/04/26 09:30:13;;;;;;;7.08;5.05;;;;;;;21.25;51.29;98589.22;1630355;85;25995;-86
2022/04/26 09:32:50;;;;;;;6.85;5.30;;;;;;;21.27;51.32;98586.86;1632984;87;25721;-86
2022/04/26 09:35:32;;;;;;;6.80;5.12;;;;;;;21.26;51.36;98589.41;1632964;87;27444;-85
2022/04/26 09:38:02;;;;;;;6.90;4.97;;;;;;;21.25;51.33;98589.22;1632521;87;25929;-86
2022/04/26 09:40:34;;;;;;;7.45;5.05;;;;;;;21.25;51.34;98581.67;1632632;87;25813;-86
2022/04/26 09:43:01;;;;;;;6.35;5.08;;;;;;;21.25;51.28;98585.85;1632849;87;25805;-85
2022/04/26 09:45:28;;;;;;;8.25;5.58;;;;;;;21.24;51.35;98580.05;1632987;87;25570;-84
2022/04/26 09:47:58;;;;;;;7.58;5.65;;;;;;;21.23;51.34;98586.82;1645633;86;27374;-84
2022/04/26 09:50:27;;;;;;;6.85;5.12;;;;;;;21.23;51.37;98584.03;1662327;85;25643;-83
2022/04/26 09:52:55;;;;;;;8.60;5.42;;;;;;;21.21;51.42;98583.61;1663368;85;25707;-83
2022/04/26 09:55:22;;;;;;;6.28;4.92;;;;;;;21.21;51.41;98585.00;1662917;86;26526;-84
2022/04/26 09:57:51;;;;;;;7.60;5.58;;;;;;;21.21;51.38;98587.02;1663197;86;25716;-84
2022/04/26 10:00:19;;;;;;;7.90;4.97;;;;;;;21.22;51.37;98581.63;1663294;84;28011;-84
2022/04/26 10:02:56;;;;;;;6.25;5.10;;;;;;;21.19;51.46;98581.22;1662793;85;25702;-84
2022/04/26 10:05:23;;;;;;;6.65;5.28;;;;;;;21.19;51.40;98583.22;1662333;85;25601;-83
2022/04/26 10:07:53;;;;;;;6.33;4.62;;;;;;;21.19;51.64;98581.22;1662987;84;25781;-84
2022/04/26 10:10:21;;;;;;;7.10;5.10;;;;;;;21.11;51.84;98579.58;1663041;86;25622;-84
2022/04/26 10:13:31;;;;;;;7.30;5.28;;;;;;;21.11;51.84;98579.58;1662829;85;27649;-84
2022/04/26 10:15:16;;;;;;;7.62;5.40;;;;;;;21.18;51.69;98579.62;1661345;85;25512;-84
2022/04/26 10:17:51;;;;;;;7.25;5.08;;;;;;;21.21;51.59;98580.83;1663319;86;25622;-85
2022/04/26 10:20:41;;;;;;;7.47;5.12;;;;;;;21.22;51.62;98583.03;1663038;86;25741;-84
2022/04/26 10:23:08;;;;;;;;;;;;;;;21.23;51.65;98584.62;1665753;85;25808;-83
2022/04/26 10:25:34;;;;;;;7.22;4.90;;;;;;;21.22;51.70;98589.41;1663201;85;27453;-84
2022/04/26 10:28:23;;;;;;;6.47;5.15;;;;;;;21.20;51.82;98588.98;1663198;86;25692;-83
2022/04/26 10:30:52;;;;;;;7.97;5.60;;;;;;;21.18;51.92;98590.77;1663146;85;26301;-83
2022/04/26 10:33:40;;;;;;;8.05;5.17;;;;;;;21.17;51.96;98589.18;1659943;84;26391;-83
2022/04/26 10:36:36;;;;;;;6.12;4.62;;;;;;;21.16;51.93;98590.96;1662925;85;25426;-83
2022/04/26 10:39:14;;;;;;;6.05;5.05;;;;;;;21.16;51.92;98600.09;1661425;85;26786;-83
2022/04/26 10:41:42;;;;;;;;;;;;;;;21.16;51.94;98600.09;1665756;86;25766;-83
2022/04/26 10:44:22;;;;;;;7.67;5.10;;;;;;;21.17;51.93;98594.75;1663187;85;25698;-84
2022/04/26 10:47:06;;;;;;;6.70;5.22;;;;;;;21.17;51.97;98593.94;1663206;86;25752;-84
2022/04/26 10:49:42;;;;;;;6.45;5.12;;;;;;;21.16;51.95;98592.36;1662987;86;25662;-84
2022/04/26 10:52:22;;;;;;;6.12;4.87;;;;;;;21.15;52.00;98598.52;1662990;85;27419;-84
2022/04/26 10:54:58;;;;;;;6.72;4.70;;;;;;;21.15;52.05;98596.30;1662762;85;25607;-85
2022/04/26 10:57:40;;;;;;;5.75;4.95;;;;;;;21.14;52.05;98598.31;1662959;85;25694;-85
2022/04/26 11:00:17;;;;;;;7.83;4.58;;;;;;;21.14;52.03;98599.70;1663173;86;25743;-86
2022/04/26 11:02:47;;;;;;;5.58;4.55;;;;;;;21.14;52.07;98600.29;1663304;85;25712;-86
2022/04/26 11:05:20;;;;;;;7.03;4.78;;;;;;;21.12;52.08;98599.28;1663324;85;28238;-83
2022/04/26 11:07:48;;;;;;;6.40;4.80;;;;;;;21.14;52.09;98603.08;1660195;83;25691;-83
2022/04/26 11:10:19;;;;;;;6.47;4.90;;;;;;;21.13;52.11;98609.84;1663239;84;25489;-83
2022/04/26 11:12:45;;;;;;;7.28;5.10;;;;;;;21.13;52.14;98608.45;1663334;85;25687;-84
2022/04/26 11:15:19;;;;;;;6.35;4.60;;;;;;;21.13;52.16;98602.27;1663317;85;25441;-84
2022/04/26 11:17:46;;;;;;;5.50;4.45;;;;;;;21.13;52.18;98605.66;1662980;85;26956;-83
2022/04/26 11:20:45;;;;;;;5.78;4.58;;;;;;;21.12;52.18;98604.86;1663256;85;25744;-83
2022/04/26 11:28:52;;;;;;;6.72;4.62;;;;;;;21.10;52.24;98609.22;1663052;86;25492;-85
2022/04/26 11:31:19;;;;;;;5.67;4.55;;;;;;;21.08;52.26;98615.18;1663389;86;27999;-83
2022/04/26 11:33:49;;;;;;;6.25;4.85;;;;;;;21.10;52.28;98614.80;1662918;85;25794;-85
2022/04/26 11:36:16;;;;;;;5.65;4.70;;;;;;;21.09;52.30;98618.16;1663436;85;25620;-84
2022/04/26 11:38:42;;;;;;;6.78;4.97;;;;;;;21.08;52.32;98617.97;1663232;85;25742;-84
2022/04/26 11:41:10;;;;;;;5.25;4.35;;;;;;;21.08;52.31;98618.55;1653549;86;25680;-85
2022/04/26 11:43:37;;;;;;;6.22;4.80;;;;;;;21.09;52.33;98610.39;1653484;85;27399;-84
2022/04/26 11:46:05;;;;;;;5.85;4.92;;;;;;;21.08;52.37;98614.37;1662942;85;25488;-85
2022/04/26 11:48:36;;;;;;;5.58;4.60;;;;;;;21.08;52.36;98610.19;1663219;85;25611;-83
2022/04/26 11:51:04;;;;;;;6.37;5.05;;;;;;;21.05;52.39;98612.59;1663122;85;25674;-85
2022/04/26 11:53:32;;;;;;;6.30;4.55;;;;;;;21.05;52.45;98618.16;1662997;86;25436;-85
2022/04/26 11:56:06;;;;;;;6.47;4.50;;;;;;;21.05;52.44;98614.56;1663339;85;27978;-86
2022/04/26 11:58:37;;;;;;;5.87;4.75;;;;;;;21.05;52.47;98615.95;1663130;86;25708;-84
2022/04/26 12:01:18;;;;;;;6.03;4.37;;;;;;;21.03;52.49;98615.53;1663282;85;25646;-86
2022/04/26 12:03:52;;;;;;;5.90;4.37;;;;;;;21.01;52.54;98612.34;1663075;86;26001;-85
2022/04/26 12:06:28;;;;;;;6.05;4.40;;;;;;;21.01;52.54;98610.95;1663284;86;25726;-85
2022/04/26 12:09:00;;;;;;;5.62;4.87;;;;;;;20.99;52.59;98612.73;1663245;85;27458;-85
2022/04/26 12:11:35;;;;;;;7.00;4.97;;;;;;;20.97;52.69;98608.71;1663141;85;25636;-86
2022/04/26 12:14:16;;;;;;;5.35;4.50;;;;;;;20.97;52.66;98607.32;1662866;85;25805;-85
2022/04/26 12:16:51;;;;;;;6.05;4.87;;;;;;;20.97;52.72;98608.13;1662965;86;26568;-88
2022/04/26 12:19:18;;;;;;;7.00;4.70;;;;;;;20.96;52.74;98605.73;1663037;85;25679;-86
2022/04/26 12:21:51;;;;;;;8.38;4.67;;;;;;;20.95;52.93;98604.14;1663252;85;26994;-85
2022/04/26 12:24:23;;;;;;;5.40;4.42;;;;;;;20.93;53.11;98607.31;1662882;85;25361;-90
2022/04/26 12:27:03;;;;;;;5.80;4.33;;;;;;;20.94;52.92;98600.55;1641108;85;25780;-87
2022/04/26 12:29:43;;;;;;;6.25;5.12;;;;;;;20.93;53.05;98601.73;1603970;89;26981;-84
2022/04/26 12:32:14;;;;;;;6.28;4.85;;;;;;;20.95;52.90;98609.09;1604229;89;25705;-84
2022/04/26 12:34:54;;;;;;;7.03;4.90;;;;;;;20.96;52.90;98605.73;1603100;89;27336;-85
2022/04/26 12:37:29;;;;;;;5.40;4.53;;;;;;;20.97;52.75;98601.75;1604006;89;25472;-84
2022/04/26 12:40:09;;;;;;;6.65;5.05;;;;;;;21.00;52.79;98603.77;1603803;89;25789;-84
2022/04/26 12:42:42;;;;;;;6.12;4.85;;;;;;;20.98;52.79;98604.76;1603916;87;25921;-84
2022/04/26 12:45:21;;;;;;;6.05;4.80;;;;;;;20.97;52.73;98601.16;1603854;89;25696;-83
2022/04/26 12:50:36;;;;;;;6.65;5.25;;;;;;;20.98;52.72;98602.76;1603655;89;25606;-84
2022/04/26 12:53:08;;;;;;;6.87;4.97;;;;;;;20.98;52.71;98595.80;1603892;89;25594;-84
2022/04/26 12:55:39;;;;;;;7.75;5.30;;;;;;;20.99;52.72;98592.42;1604057;88;25867;-84
2022/04/26 12:58:08;;;;;;;5.78;5.17;;;;;;;21.00;52.68;98599.00;1604256;88;25633;-84
2022/04/26 13:00:42;;;;;;;6.33;4.95;;;;;;;21.01;52.77;98595.63;1604175;89;27991;-87
2022/04/26 13:03:12;;;;;;;8.23;5.33;;;;;;;21.02;52.67;98600.01;1602544;89;25653;-84
2022/04/26 13:05:48;;;;;;;6.55;5.05;;;;;;;21.01;52.77;98591.45;1604187;88;25450;-86
2022/04/26 13:08:15;;;;;;;7.33;5.75;;;;;;;;;;1600924;88;26381;-84
2022/04/26 13:10:43;;;;;;;8.08;5.80;;;;;;;21.03;52.78;98591.84;1625766;87;25786;-84
2022/04/26 13:13:11;;;;;;;7.97;5.72;;;;;;;21.04;52.85;98599.82;1633761;86;27438;-83
2022/04/26 13:15:38;;;;;;;8.10;5.80;;;;;;;21.05;52.90;98597.27;1634685;87;25667;-83
2022/04/26 13:18:05;;;;;;;8.28;5.67;;;;;;;21.06;52.99;98596.65;1634804;87;25751;-84
2022/04/26 13:20:32;;;;;;;7.05;5.83;;;;;;;21.06;53.05;98596.06;1634786;87;25713;-84
2022/04/26 13:22:59;;;;;;;9.55;5.78;;;;;;;21.08;53.19;98596.27;1634555;87;25617;-84
2022/04/26 13:25:26;;;;;;;7.62;5.60;;;;;;;21.07;53.34;98601.02;1634895;87;27336;-83
2022/04/26 13:27:53;;;;;;;8.80;6.42;;;;;;;21.08;53.43;98593.48;1634794;87;25712;-85
2022/04/26 13:30:19;;;;;;;8.00;6.05;;;;;;;21.10;53.52;98592.51;1634896;87;25700;-84
2022/04/26 13:32:46;;;;;;;8.10;6.35;;;;;;;21.11;53.57;98592.13;1634663;87;26243;-85
2022/04/26 13:35:13;;;;;;;8.73;7.03;;;;;;;21.13;53.70;98592.52;1634467;87;25514;-86
2022/04/26 13:37:39;;;;;;;8.30;6.50;;;;;;;21.13;53.76;98600.09;1634889;87;27383;-84
2022/04/26 13:40:08;;;;;;;8.43;6.60;;;;;;;21.13;53.94;98600.88;1634663;87;25486;-85
2022/04/26 13:42:35;;;;;;;9.10;6.90;;;;;;;21.14;54.22;98594.72;1634766;87;25554;-84
2022/04/26 13:45:04;;;;;;;8.40;6.80;;;;;;;21.14;54.31;98594.13;1634525;86;26531;-84
2022/04/26 13:47:30;;;;;;;8.85;7.10;;;;;;;21.15;54.30;98595.72;1634870;87;25433;-85
2022/04/26 13:49:57;;;;;;;7.47;6.62;;;;;;;21.16;54.43;98593.75;1634750;86;27377;-86
2022/04/26 13:52:24;;;;;;;12.13;7.53;;;;;;;21.15;54.52;98589.34;1634425;87;26033;-85
2022/04/26 13:54:51;;;;;;;10.25;7.60;;;;;;;21.14;54.61;98595.53;1634763;87;25706;-83
2022/04/26 13:57:18;;;;;;;8.90;7.00;;;;;;;21.14;54.59;98591.34;1634717;87;25850;-85
2022/04/26 13:59:45;;;;;;;9.68;7.40;;;;;;;21.16;54.52;98590.34;1634982;86;25607;-86
2022/04/26 14:02:12;;;;;;;8.73;7.15;;;;;;;21.16;54.80;98593.13;1631785;87;27453;-84
2022/04/26 14:04:38;;;;;;;11.35;7.08;;;;;;;21.17;54.57;98591.16;1634876;87;25451;-84
2022/04/26 14:07:06;;;;;;;10.38;7.35;;;;;;;21.17;54.66;98593.94;1634777;86;25537;-83
2022/04/26 14:09:33;;;;;;;9.40;7.47;;;;;;;21.16;54.65;98590.34;1639493;85;25707;-84
2022/04/26 14:12:00;;;;;;;10.32;7.60;;;;;;;21.18;54.50;98589.38;1680191;85;25724;-85
2022/04/26 14:22:43;;;;;;;9.15;7.25;;;;;;;21.27;54.21;98590.42;1679885;85;25689;-84
2022/04/26 14:25:15;;;;;;;8.35;7.00;;;;;;;21.27;54.16;98589.64;1680023;85;25673;-85
2022/04/26 14:27:43;;;;;;;9.23;6.60;;;;;;;21.27;54.09;98592.43;1679810;84;26611;-84
2022/04/26 14:30:12;;;;;;;9.10;6.72;;;;;;;21.28;54.06;98585.08;1679998;85;25704;-84
2022/04/26 14:32:38;;;;;;;8.78;7.12;;;;;;;21.29;54.02;98593.63;1662418;85;25551;-84
2022/04/26 14:35:07;;;;;;;8.43;6.97;;;;;;;21.28;53.97;98593.44;1680205;84;25771;-84
2022/04/26 14:37:33;;;;;;;10.68;7.12;;;;;;;21.27;53.96;98593.82;1680313;85;25492;-84
2022/04/26 14:40:00;;;;;;;8.58;6.85;;;;;;;21.29;53.90;98597.00;1680330;85;28028;-84
2022/04/26 14:42:28;;;;;;;8.63;6.97;;;;;;;21.29;53.88;98597.81;1680168;84;25539;-85
2022/04/26 14:44:56;;;;;;;9.83;6.95;;;;;;;21.28;53.84;98595.41;1679937;84;25685;-85
2022/04/26 14:47:27;;;;;;;8.58;6.92;;;;;;;21.29;53.79;98592.82;1679914;85;25759;-84
2022/04/26 14:49:57;;;;;;;8.93;6.85;;;;;;;21.30;53.74;98595.83;1679942;85;25769;-86
2022/04/26 14:52:24;;;;;;;8.80;6.60;;;;;;;21.30;53.67;98595.22;1679769;84;25840;-86
2022/04/26 14:54:52;;;;;;;8.43;6.72;;;;;;;21.27;53.84;98597.39;1679822;85;25961;-85
2022/04/26 14:57:18;;;;;;;8.53;6.83;;;;;;;21.25;53.83;98597.58;1680082;85;25761;-86
2022/04/26 14:59:48;;;;;;;8.88;6.80;;;;;;;21.24;53.68;98595.99;1680323;84;25752;-86
2022/04/26 15:02:19;;;;;;;10.90;6.90;;;;;;;21.23;53.70;98598.55;1679876;85;25622;-86
2022/04/26 15:04:47;;;;;;;10.05;7.28;;;;;;;21.22;53.53;98599.16;1677790;84;27384;-85
2022/04/26 15:07:16;;;;;;;9.85;6.80;;;;;;;21.22;53.65;98596.38;1679761;85;25614;-85
2022/04/26 15:09:42;;;;;;;8.83;6.72;;;;;;;21.22;53.47;98595.56;1679932;85;25489;-85
2022/04/26 15:17:49;;;;;;;8.48;6.47;;;;;;;21.22;53.44;98589.41;1679877;85;25714;-84
2022/04/26 15:20:18;;;;;;;11.22;6.90;;;;;;;21.23;53.37;98591.00;1680251;85;25629;-84
2022/04/26 15:22:46;;;;;;;9.35;6.50;;;;;;;21.23;53.48;98590.19;1679863;84;25714;-84
2022/04/26 15:25:13;;;;;;;8.23;6.45;;;;;;;21.19;53.40;98590.97;1679903;85;25742;-84
2022/04/26 15:27:40;;;;;;;11.80;6.83;;;;;;;21.21;53.39;98593.37;1680347;84;25435;-85
2022/04/26 15:30:11;;;;;;;11.50;6.47;;;;;;;21.18;53.41;98592.16;1680076;85;27393;-85
2022/04/26 15:32:37;;;;;;;;;;;;;;;21.17;53.54;98596.14;1682637;85;25515;-85
2022/04/26 15:35:05;;;;;;;11.10;6.78;;;;;;;21.15;53.30;98597.70;1680267;85;25614;-84
2022/04/26 15:37:31;;;;;;;9.13;6.83;;;;;;;21.13;53.20;98590.34;1680139;85;25750;-84
2022/04/26 15:39:58;;;;;;;11.20;6.92;;;;;;;21.12;53.23;98593.71;1680158;84;25670;-84
2022/04/26 15:42:25;;;;;;;12.00;7.60;;;;;;;21.12;53.21;98594.30;1679909;85;27503;-84
2022/04/26 15:44:52;;;;;;;10.50;7.05;;;;;;;21.15;53.12;98593.52;1679815;85;25912;-84
2022/04/26 15:47:19;;;;;;;10.08;7.08;;;;;;;21.15;53.10;98590.73;1680144;84;25685;-84
2022/04/26 15:49:45;;;;;;;11.20;6.33;;;;;;;21.14;53.07;98592.74;1680208;85;25628;-85
2022/04/26 15:52:11;;;;;;;11.53;6.67;;;;;;;21.14;53.30;98595.53;1680144;85;25470;-82
2022/04/26 15:54:38;;;;;;;10.90;6.75;;;;;;;21.13;53.23;98599.48;1680171;85;28198;-82
2022/04/26 15:57:04;;;;;;;10.30;6.22;;;;;;;21.11;53.40;98596.30;1680144;85;25786;-82
2022/04/26 15:59:31;;;;;;;9.23;6.05;;;;;;;21.10;53.46;98595.30;1680353;85;25686;-84